sensor_id;sensor_type;location;lat;lon;timestamp;P1;durP1;ratioP1;P2;durP2;ratioP2
61741;SDS011;47650;49.848;9.620;2022-11-22T00:01:29;12.93;;;8.13;;
61741;SDS011;47650;49.848;9.620;2022-11-22T00:03:54;16.95;;;10.77;;
61741;SDS011;47650;49.848;9.620;2022-11-22T00:06:19;13.68;;;7.63;;
61741;SDS011;47650;49.848;9.620;2022-11-22T00:08:50;10.95;;;7.75;;
61741;SDS011;47650;49.848;9.620;2022-11-22T00:11:21;13.05;;;7.65;;
61741;SDS011;47650;49.848;9.620;2022-11-22T00:13:47;15.27;;;9.43;;
61741;SDS011;47650;49.848;9.620;2022-11-22T00:16:12;15.50;;;9.45;;
61741;SDS011;47650;49.848;9.620;2022-11-22T00:18:38;14.77;;;10.05;;
61741;SDS011;47650;49.848;9.620;2022-11-22T00:21:05;16.67;;;11.88;;
61741;SDS011;47650;49.848;9.620;2022-11-22T00:23:33;19.38;;;10.35;;
61741;SDS011;47650;49.848;9.620;2022-11-22T00:25:59;17.42;;;12.52;;
61741;SDS011;47650;49.848;9.620;2022-11-22T00:28:33;16.60;;;11.80;;
61741;SDS011;47650;49.848;9.620;2022-11-22T00:30:58;20.85;;;11.00;;
61741;SDS011;47650;49.848;9.620;2022-11-22T00:33:24;17.45;;;13.10;;
61741;SDS011;47650;49.848;9.620;2022-11-22T00:35:49;23.98;;;15.45;;
61741;SDS011;47650;49.848;9.620;2022-11-22T00:38:16;19.35;;;12.60;;
61741;SDS011;47650;49.848;9.620;2022-11-22T00:40:41;21.17;;;12.15;;
61741;SDS011;47650;49.848;9.620;2022-11-22T00:43:08;19.80;;;13.90;;
61741;SDS011;47650;49.848;9.620;2022-11-22T00:45:33;19.45;;;13.00;;
61741;SDS011;47650;49.848;9.620;2022-11-22T00:47:58;16.77;;;11.90;;
61741;SDS011;47650;49.848;9.620;2022-11-22T00:50:23;20.33;;;12.63;;
61741;SDS011;47650;49.848;9.620;2022-11-22T00:52:49;17.60;;;13.27;;
61741;SDS011;47650;49.848;9.620;2022-11-22T00:55:15;16.17;;;11.93;;
61741;SDS011;47650;49.848;9.620;2022-11-22T00:57:42;18.13;;;11.80;;
61741;SDS011;47650;49.848;9.620;2022-11-22T01:00:09;15.50;;;10.35;;
61741;SDS011;47650;49.848;9.620;2022-11-22T01:02:38;20.73;;;11.30;;
61741;SDS011;47650;49.848;9.620;2022-11-22T01:05:03;13.20;;;9.93;;
61741;SDS011;47650;49.848;9.620;2022-11-22T01:07:29;13.73;;;9.05;;
61741;SDS011;47650;49.848;9.620;2022-11-22T01:09:54;15.85;;;9.68;;
61741;SDS011;47650;49.848;9.620;2022-11-22T01:12:20;15.10;;;9.65;;
61741;SDS011;47650;49.848;9.620;2022-11-22T01:14:45;13.65;;;10.02;;
61741;SDS011;47650;49.848;9.620;2022-11-22T01:17:10;13.48;;;8.98;;
61741;SDS011;47650;49.848;9.620;2022-11-22T01:19:38;14.43;;;9.27;;
61741;SDS011;47650;49.848;9.620;2022-11-22T01:22:04;13.00;;;8.38;;
61741;SDS011;47650;49.848;9.620;2022-11-22T01:24:29;16.73;;;8.88;;
61741;SDS011;47650;49.848;9.620;2022-11-22T01:26:55;15.85;;;10.10;;
61741;SDS011;47650;49.848;9.620;2022-11-22T01:29:21;12.93;;;9.45;;
61741;SDS011;47650;49.848;9.620;2022-11-22T01:31:46;18.48;;;13.35;;
61741;SDS011;47650;49.848;9.620;2022-11-22T01:34:12;14.90;;;9.18;;
61741;SDS011;47650;49.848;9.620;2022-11-22T01:36:37;15.05;;;9.70;;
61741;SDS011;47650;49.848;9.620;2022-11-22T01:39:02;15.75;;;11.43;;
61741;SDS011;47650;49.848;9.620;2022-11-22T01:41:36;13.63;;;11.18;;
61741;SDS011;47650;49.848;9.620;2022-11-22T01:44:17;23.98;;;14.25;;
61741;SDS011;47650;49.848;9.620;2022-11-22T01:46:51;17.65;;;11.68;;
61741;SDS011;47650;49.848;9.620;2022-11-22T01:49:28;18.38;;;12.30;;
61741;SDS011;47650;49.848;9.620;2022-11-22T01:52:22;23.63;;;15.20;;
61741;SDS011;47650;49.848;9.620;2022-11-22T01:54:53;26.80;;;19.58;;
61741;SDS011;47650;49.848;9.620;2022-11-22T01:57:24;42.88;;;23.88;;
61741;SDS011;47650;49.848;9.620;2022-11-22T02:00:03;33.67;;;21.90;;
61741;SDS011;47650;49.848;9.620;2022-11-22T02:02:30;28.55;;;22.67;;
61741;SDS011;47650;49.848;9.620;2022-11-22T02:04:58;34.25;;;23.13;;
61741;SDS011;47650;49.848;9.620;2022-11-22T02:07:30;37.45;;;26.40;;
61741;SDS011;47650;49.848;9.620;2022-11-22T02:10:00;37.85;;;26.48;;
61741;SDS011;47650;49.848;9.620;2022-11-22T02:12:26;41.80;;;28.55;;
61741;SDS011;47650;49.848;9.620;2022-11-22T02:14:55;43.30;;;28.02;;
61741;SDS011;47650;49.848;9.620;2022-11-22T02:17:25;46.65;;;30.73;;
61741;SDS011;47650;49.848;9.620;2022-11-22T02:19:52;40.53;;;25.70;;
61741;SDS011;47650;49.848;9.620;2022-11-22T02:25:20;34.08;;;25.67;;
61741;SDS011;47650;49.848;9.620;2022-11-22T02:27:50;31.08;;;25.83;;
61741;SDS011;47650;49.848;9.620;2022-11-22T02:30:16;33.13;;;23.73;;
61741;SDS011;47650;49.848;9.620;2022-11-22T02:32:43;32.70;;;24.13;;
61741;SDS011;47650;49.848;9.620;2022-11-22T02:35:15;31.80;;;23.30;;
61741;SDS011;47650;49.848;9.620;2022-11-22T02:37:42;29.55;;;22.63;;
61741;SDS011;47650;49.848;9.620;2022-11-22T02:40:08;37.95;;;23.90;;
61741;SDS011;47650;49.848;9.620;2022-11-22T02:42:38;34.67;;;23.48;;
61741;SDS011;47650;49.848;9.620;2022-11-22T02:45:06;39.60;;;23.52;;
61741;SDS011;47650;49.848;9.620;2022-11-22T02:47:31;35.78;;;24.55;;
61741;SDS011;47650;49.848;9.620;2022-11-22T02:50:01;34.60;;;23.45;;
61741;SDS011;47650;49.848;9.620;2022-11-22T02:52:26;37.60;;;25.30;;
61741;SDS011;47650;49.848;9.620;2022-11-22T02:54:52;32.78;;;24.05;;
61741;SDS011;47650;49.848;9.620;2022-11-22T02:57:18;34.13;;;26.42;;
61741;SDS011;47650;49.848;9.620;2022-11-22T02:59:44;30.98;;;22.23;;
61741;SDS011;47650;49.848;9.620;2022-11-22T03:02:09;33.88;;;25.10;;
61741;SDS011;47650;49.848;9.620;2022-11-22T03:04:37;27.00;;;20.33;;
61741;SDS011;47650;49.848;9.620;2022-11-22T03:07:02;28.55;;;20.92;;
61741;SDS011;47650;49.848;9.620;2022-11-22T03:09:28;28.83;;;21.15;;
61741;SDS011;47650;49.848;9.620;2022-11-22T03:11:54;28.10;;;21.58;;
61741;SDS011;47650;49.848;9.620;2022-11-22T03:14:20;28.58;;;21.35;;
61741;SDS011;47650;49.848;9.620;2022-11-22T03:16:46;31.48;;;21.70;;
61741;SDS011;47650;49.848;9.620;2022-11-22T03:19:12;29.25;;;21.65;;
61741;SDS011;47650;49.848;9.620;2022-11-22T03:21:40;27.88;;;21.05;;
61741;SDS011;47650;49.848;9.620;2022-11-22T03:24:07;33.45;;;22.60;;
61741;SDS011;47650;49.848;9.620;2022-11-22T03:26:35;35.85;;;23.92;;
61741;SDS011;47650;49.848;9.620;2022-11-22T03:29:01;33.17;;;23.75;;
61741;SDS011;47650;49.848;9.620;2022-11-22T03:31:27;35.50;;;23.92;;
61741;SDS011;47650;49.848;9.620;2022-11-22T03:33:53;27.83;;;21.27;;
61741;SDS011;47650;49.848;9.620;2022-11-22T03:36:20;38.58;;;26.00;;
61741;SDS011;47650;49.848;9.620;2022-11-22T03:38:47;29.67;;;21.40;;
61741;SDS011;47650;49.848;9.620;2022-11-22T03:41:12;31.63;;;22.05;;
61741;SDS011;47650;49.848;9.620;2022-11-22T03:43:39;37.72;;;26.73;;
61741;SDS011;47650;49.848;9.620;2022-11-22T03:46:04;29.33;;;23.00;;
61741;SDS011;47650;49.848;9.620;2022-11-22T03:48:30;39.20;;;24.48;;
61741;SDS011;47650;49.848;9.620;2022-11-22T03:51:03;30.00;;;22.17;;
61741;SDS011;47650;49.848;9.620;2022-11-22T03:53:30;35.47;;;25.38;;
61741;SDS011;47650;49.848;9.620;2022-11-22T03:55:56;35.03;;;25.85;;
61741;SDS011;47650;49.848;9.620;2022-11-22T03:58:23;26.17;;;20.35;;
61741;SDS011;47650;49.848;9.620;2022-11-22T04:00:49;30.10;;;21.90;;
61741;SDS011;47650;49.848;9.620;2022-11-22T04:03:15;30.08;;;20.88;;
61741;SDS011;47650;49.848;9.620;2022-11-22T04:05:41;30.42;;;22.85;;
61741;SDS011;47650;49.848;9.620;2022-11-22T04:08:07;32.13;;;22.92;;
61741;SDS011;47650;49.848;9.620;2022-11-22T04:10:32;30.83;;;22.20;;
61741;SDS011;47650;49.848;9.620;2022-11-22T04:12:58;29.08;;;21.90;;
61741;SDS011;47650;49.848;9.620;2022-11-22T04:15:24;33.15;;;20.83;;
61741;SDS011;47650;49.848;9.620;2022-11-22T04:17:50;30.55;;;21.77;;
61741;SDS011;47650;49.848;9.620;2022-11-22T04:20:16;32.38;;;21.67;;
61741;SDS011;47650;49.848;9.620;2022-11-22T04:23:06;33.28;;;23.40;;
61741;SDS011;47650;49.848;9.620;2022-11-22T04:25:33;41.33;;;23.02;;
61741;SDS011;47650;49.848;9.620;2022-11-22T04:28:02;31.05;;;22.50;;
61741;SDS011;47650;49.848;9.620;2022-11-22T04:30:28;33.67;;;24.60;;
61741;SDS011;47650;49.848;9.620;2022-11-22T04:33:12;35.38;;;23.23;;
61741;SDS011;47650;49.848;9.620;2022-11-22T04:35:39;32.15;;;21.45;;
61741;SDS011;47650;49.848;9.620;2022-11-22T04:38:05;34.50;;;24.38;;
61741;SDS011;47650;49.848;9.620;2022-11-22T04:40:31;33.20;;;22.60;;
61741;SDS011;47650;49.848;9.620;2022-11-22T04:42:57;37.45;;;24.38;;
61741;SDS011;47650;49.848;9.620;2022-11-22T04:45:45;32.50;;;23.35;;
61741;SDS011;47650;49.848;9.620;2022-11-22T04:48:12;30.73;;;21.38;;
61741;SDS011;47650;49.848;9.620;2022-11-22T04:50:38;39.95;;;25.55;;
61741;SDS011;47650;49.848;9.620;2022-11-22T04:53:23;43.30;;;27.83;;
61741;SDS011;47650;49.848;9.620;2022-11-22T04:55:50;33.78;;;23.10;;
61741;SDS011;47650;49.848;9.620;2022-11-22T04:58:16;49.17;;;29.67;;
61741;SDS011;47650;49.848;9.620;2022-11-22T05:00:48;32.35;;;24.45;;
61741;SDS011;47650;49.848;9.620;2022-11-22T05:03:14;32.35;;;22.73;;
61741;SDS011;47650;49.848;9.620;2022-11-22T05:05:41;40.38;;;26.55;;
61741;SDS011;47650;49.848;9.620;2022-11-22T05:08:15;34.53;;;22.80;;
61741;SDS011;47650;49.848;9.620;2022-11-22T05:10:40;29.40;;;21.20;;
61741;SDS011;47650;49.848;9.620;2022-11-22T05:13:30;38.35;;;23.58;;
61741;SDS011;47650;49.848;9.620;2022-11-22T05:15:58;36.47;;;24.73;;
61741;SDS011;47650;49.848;9.620;2022-11-22T05:18:26;36.42;;;24.83;;
61741;SDS011;47650;49.848;9.620;2022-11-22T05:20:52;29.27;;;20.23;;
61741;SDS011;47650;49.848;9.620;2022-11-22T05:23:18;29.27;;;20.45;;
61741;SDS011;47650;49.848;9.620;2022-11-22T05:26:02;26.30;;;19.20;;
61741;SDS011;47650;49.848;9.620;2022-11-22T05:28:30;30.77;;;20.88;;
61741;SDS011;47650;49.848;9.620;2022-11-22T05:30:56;32.38;;;21.65;;
61741;SDS011;47650;49.848;9.620;2022-11-22T05:33:28;26.17;;;20.27;;
61741;SDS011;47650;49.848;9.620;2022-11-22T05:35:55;25.40;;;18.40;;
61741;SDS011;47650;49.848;9.620;2022-11-22T05:38:26;36.83;;;24.60;;
61741;SDS011;47650;49.848;9.620;2022-11-22T05:40:53;29.70;;;21.10;;
61741;SDS011;47650;49.848;9.620;2022-11-22T05:43:21;37.83;;;22.80;;
61741;SDS011;47650;49.848;9.620;2022-11-22T05:45:47;37.38;;;23.88;;
61741;SDS011;47650;49.848;9.620;2022-11-22T05:48:12;43.42;;;25.42;;
61741;SDS011;47650;49.848;9.620;2022-11-22T05:50:37;29.35;;;20.60;;
61741;SDS011;47650;49.848;9.620;2022-11-22T05:53:03;32.92;;;23.10;;
61741;SDS011;47650;49.848;9.620;2022-11-22T05:55:28;40.72;;;24.55;;
61741;SDS011;47650;49.848;9.620;2022-11-22T05:57:54;33.03;;;21.35;;
61741;SDS011;47650;49.848;9.620;2022-11-22T06:00:26;29.73;;;20.77;;
61741;SDS011;47650;49.848;9.620;2022-11-22T06:02:52;48.10;;;31.73;;
61741;SDS011;47650;49.848;9.620;2022-11-22T06:05:17;38.95;;;25.63;;
61741;SDS011;47650;49.848;9.620;2022-11-22T06:07:42;51.25;;;28.92;;
61741;SDS011;47650;49.848;9.620;2022-11-22T06:10:08;54.10;;;30.20;;
61741;SDS011;47650;49.848;9.620;2022-11-22T06:12:34;37.30;;;22.52;;
61741;SDS011;47650;49.848;9.620;2022-11-22T06:14:59;39.40;;;25.40;;
61741;SDS011;47650;49.848;9.620;2022-11-22T06:17:25;29.73;;;21.98;;
61741;SDS011;47650;49.848;9.620;2022-11-22T06:19:57;37.38;;;27.08;;
61741;SDS011;47650;49.848;9.620;2022-11-22T06:22:22;46.08;;;28.48;;
61741;SDS011;47650;49.848;9.620;2022-11-22T06:24:48;42.47;;;26.58;;
61741;SDS011;47650;49.848;9.620;2022-11-22T06:27:14;34.65;;;24.55;;
61741;SDS011;47650;49.848;9.620;2022-11-22T06:29:41;47.40;;;29.90;;
61741;SDS011;47650;49.848;9.620;2022-11-22T06:32:06;53.50;;;30.90;;
61741;SDS011;47650;49.848;9.620;2022-11-22T06:34:32;37.60;;;24.08;;
61741;SDS011;47650;49.848;9.620;2022-11-22T06:36:57;43.60;;;27.77;;
61741;SDS011;47650;49.848;9.620;2022-11-22T06:39:22;59.45;;;33.90;;
61741;SDS011;47650;49.848;9.620;2022-11-22T06:41:47;45.25;;;28.65;;
61741;SDS011;47650;49.848;9.620;2022-11-22T06:44:14;43.72;;;25.70;;
61741;SDS011;47650;49.848;9.620;2022-11-22T06:46:41;42.13;;;27.15;;
61741;SDS011;47650;49.848;9.620;2022-11-22T06:49:08;46.42;;;28.15;;
61741;SDS011;47650;49.848;9.620;2022-11-22T06:51:33;38.90;;;24.75;;
61741;SDS011;47650;49.848;9.620;2022-11-22T06:53:59;91.25;;;31.92;;
61741;SDS011;47650;49.848;9.620;2022-11-22T06:56:27;75.53;;;35.45;;
61741;SDS011;47650;49.848;9.620;2022-11-22T06:58:52;78.18;;;37.63;;
61741;SDS011;47650;49.848;9.620;2022-11-22T07:01:25;49.97;;;29.67;;
61741;SDS011;47650;49.848;9.620;2022-11-22T07:06:22;43.03;;;29.63;;
61741;SDS011;47650;49.848;9.620;2022-11-22T07:08:48;47.15;;;32.50;;
61741;SDS011;47650;49.848;9.620;2022-11-22T07:11:14;46.20;;;33.00;;
61741;SDS011;47650;49.848;9.620;2022-11-22T07:13:42;64.90;;;41.92;;
61741;SDS011;47650;49.848;9.620;2022-11-22T07:16:09;51.60;;;39.20;;
61741;SDS011;47650;49.848;9.620;2022-11-22T07:18:35;53.00;;;32.72;;
61741;SDS011;47650;49.848;9.620;2022-11-22T07:21:08;33.17;;;22.52;;
61741;SDS011;47650;49.848;9.620;2022-11-22T07:23:38;34.38;;;22.63;;
61741;SDS011;47650;49.848;9.620;2022-11-22T07:26:06;44.83;;;27.60;;
61741;SDS011;47650;49.848;9.620;2022-11-22T07:28:31;40.35;;;25.65;;
61741;SDS011;47650;49.848;9.620;2022-11-22T07:30:57;30.45;;;21.73;;
61741;SDS011;47650;49.848;9.620;2022-11-22T07:33:24;39.20;;;23.42;;
61741;SDS011;47650;49.848;9.620;2022-11-22T07:35:49;28.52;;;21.35;;
61741;SDS011;47650;49.848;9.620;2022-11-22T07:38:14;31.40;;;21.75;;
61741;SDS011;47650;49.848;9.620;2022-11-22T07:40:41;37.42;;;26.13;;
61741;SDS011;47650;49.848;9.620;2022-11-22T07:43:14;36.90;;;26.08;;
61741;SDS011;47650;49.848;9.620;2022-11-22T07:45:39;35.17;;;26.52;;
61741;SDS011;47650;49.848;9.620;2022-11-22T07:48:04;32.42;;;25.77;;
61741;SDS011;47650;49.848;9.620;2022-11-22T07:50:30;31.23;;;23.77;;
61741;SDS011;47650;49.848;9.620;2022-11-22T07:52:56;30.20;;;22.50;;
61741;SDS011;47650;49.848;9.620;2022-11-22T07:55:22;28.70;;;21.45;;
61741;SDS011;47650;49.848;9.620;2022-11-22T07:57:49;24.30;;;19.95;;
61741;SDS011;47650;49.848;9.620;2022-11-22T08:00:15;24.27;;;19.58;;
61741;SDS011;47650;49.848;9.620;2022-11-22T08:02:41;33.42;;;23.40;;
61741;SDS011;47650;49.848;9.620;2022-11-22T08:05:06;26.55;;;21.75;;
61741;SDS011;47650;49.848;9.620;2022-11-22T08:07:32;40.28;;;26.58;;
61741;SDS011;47650;49.848;9.620;2022-11-22T08:09:57;30.83;;;22.83;;
61741;SDS011;47650;49.848;9.620;2022-11-22T08:12:23;26.70;;;18.77;;
61741;SDS011;47650;49.848;9.620;2022-11-22T08:14:49;61.70;;;34.67;;
61741;SDS011;47650;49.848;9.620;2022-11-22T08:17:14;37.13;;;24.73;;
61741;SDS011;47650;49.848;9.620;2022-11-22T08:19:40;26.38;;;17.42;;
61741;SDS011;47650;49.848;9.620;2022-11-22T08:22:05;24.40;;;18.13;;
61741;SDS011;47650;49.848;9.620;2022-11-22T08:24:31;25.45;;;18.95;;
61741;SDS011;47650;49.848;9.620;2022-11-22T08:26:57;28.77;;;20.10;;
61741;SDS011;47650;49.848;9.620;2022-11-22T08:29:23;28.60;;;18.65;;
61741;SDS011;47650;49.848;9.620;2022-11-22T08:31:48;24.08;;;17.38;;
61741;SDS011;47650;49.848;9.620;2022-11-22T08:34:13;29.73;;;19.15;;
61741;SDS011;47650;49.848;9.620;2022-11-22T08:36:39;22.80;;;17.65;;
61741;SDS011;47650;49.848;9.620;2022-11-22T08:39:05;23.60;;;17.90;;
61741;SDS011;47650;49.848;9.620;2022-11-22T08:43:58;24.85;;;16.83;;
61741;SDS011;47650;49.848;9.620;2022-11-22T08:46:24;39.20;;;25.13;;
61741;SDS011;47650;49.848;9.620;2022-11-22T08:48:50;28.55;;;19.23;;
61741;SDS011;47650;49.848;9.620;2022-11-22T08:51:17;24.02;;;18.95;;
61741;SDS011;47650;49.848;9.620;2022-11-22T08:53:42;32.55;;;21.70;;
61741;SDS011;47650;49.848;9.620;2022-11-22T08:56:12;29.17;;;19.75;;
61741;SDS011;47650;49.848;9.620;2022-11-22T08:58:38;84.97;;;30.40;;
61741;SDS011;47650;49.848;9.620;2022-11-22T09:01:06;71.75;;;28.98;;
61741;SDS011;47650;49.848;9.620;2022-11-22T09:03:34;157.20;;;29.10;;
61741;SDS011;47650;49.848;9.620;2022-11-22T09:06:03;65.63;;;31.00;;
61741;SDS011;47650;49.848;9.620;2022-11-22T09:08:36;124.10;;;28.92;;
61741;SDS011;47650;49.848;9.620;2022-11-22T09:11:09;151.40;;;31.67;;
61741;SDS011;47650;49.848;9.620;2022-11-22T09:13:36;99.15;;;27.25;;
61741;SDS011;47650;49.848;9.620;2022-11-22T09:16:05;83.50;;;31.45;;
61741;SDS011;47650;49.848;9.620;2022-11-22T09:18:49;50.85;;;25.55;;
61741;SDS011;47650;49.848;9.620;2022-11-22T09:21:15;32.50;;;22.42;;
61741;SDS011;47650;49.848;9.620;2022-11-22T09:23:44;33.00;;;23.63;;
61741;SDS011;47650;49.848;9.620;2022-11-22T09:26:14;45.70;;;25.20;;
61741;SDS011;47650;49.848;9.620;2022-11-22T09:28:43;29.40;;;22.55;;
61741;SDS011;47650;49.848;9.620;2022-11-22T09:31:10;26.33;;;20.85;;
61741;SDS011;47650;49.848;9.620;2022-11-22T09:33:41;30.20;;;21.45;;
61741;SDS011;47650;49.848;9.620;2022-11-22T09:36:20;25.38;;;21.23;;
61741;SDS011;47650;49.848;9.620;2022-11-22T09:38:47;26.02;;;20.95;;
61741;SDS011;47650;49.848;9.620;2022-11-22T09:52:04;22.85;;;20.25;;
61741;SDS011;47650;49.848;9.620;2022-11-22T09:57:18;20.65;;;16.35;;
61741;SDS011;47650;49.848;9.620;2022-11-22T09:59:56;21.55;;;15.38;;
61741;SDS011;47650;49.848;9.620;2022-11-22T10:02:29;22.63;;;16.88;;
61741;SDS011;47650;49.848;9.620;2022-11-22T10:05:12;18.52;;;15.88;;
61741;SDS011;47650;49.848;9.620;2022-11-22T10:07:48;22.83;;;16.38;;
61741;SDS011;47650;49.848;9.620;2022-11-22T10:10:23;21.45;;;17.13;;
61741;SDS011;47650;49.848;9.620;2022-11-22T10:13:16;25.05;;;16.45;;
61741;SDS011;47650;49.848;9.620;2022-11-22T10:21:13;22.90;;;16.25;;
61741;SDS011;47650;49.848;9.620;2022-11-22T10:23:43;21.50;;;15.68;;
61741;SDS011;47650;49.848;9.620;2022-11-22T10:34:51;19.17;;;13.02;;
61741;SDS011;47650;49.848;9.620;2022-11-22T10:53:00;14.02;;;10.40;;
61741;SDS011;47650;49.848;9.620;2022-11-22T10:55:36;15.18;;;11.35;;
61741;SDS011;47650;49.848;9.620;2022-11-22T10:58:05;16.25;;;11.85;;
61741;SDS011;47650;49.848;9.620;2022-11-22T11:00:38;18.95;;;13.13;;
61741;SDS011;47650;49.848;9.620;2022-11-22T11:03:15;16.98;;;11.45;;
61741;SDS011;47650;49.848;9.620;2022-11-22T11:08:45;16.42;;;12.80;;
61741;SDS011;47650;49.848;9.620;2022-11-22T11:11:14;15.82;;;9.13;;
61741;SDS011;47650;49.848;9.620;2022-11-22T11:13:44;13.00;;;7.82;;
61741;SDS011;47650;49.848;9.620;2022-11-22T11:21:36;11.63;;;3.72;;
61741;SDS011;47650;49.848;9.620;2022-11-22T11:24:05;10.75;;;3.60;;
61741;SDS011;47650;49.848;9.620;2022-11-22T11:26:36;32.33;;;18.02;;
61741;SDS011;47650;49.848;9.620;2022-11-22T11:31:46;29.70;;;14.70;;
61741;SDS011;47650;49.848;9.620;2022-11-22T11:34:21;9.75;;;5.93;;
61741;SDS011;47650;49.848;9.620;2022-11-22T11:36:49;9.75;;;3.13;;
61741;SDS011;47650;49.848;9.620;2022-11-22T11:39:22;9.75;;;2.53;;
61741;SDS011;47650;49.848;9.620;2022-11-22T11:41:52;8.85;;;2.75;;
61741;SDS011;47650;49.848;9.620;2022-11-22T11:44:26;8.25;;;2.33;;
61741;SDS011;47650;49.848;9.620;2022-11-22T11:46:52;6.22;;;2.00;;
61741;SDS011;47650;49.848;9.620;2022-11-22T11:49:20;8.68;;;2.33;;
61741;SDS011;47650;49.848;9.620;2022-11-22T11:51:56;9.00;;;2.50;;
61741;SDS011;47650;49.848;9.620;2022-11-22T11:54:44;9.50;;;2.45;;
61741;SDS011;47650;49.848;9.620;2022-11-22T12:00:18;6.60;;;2.40;;
61741;SDS011;47650;49.848;9.620;2022-11-22T12:02:46;8.77;;;2.22;;
61741;SDS011;47650;49.848;9.620;2022-11-22T12:07:40;11.07;;;2.20;;
61741;SDS011;47650;49.848;9.620;2022-11-22T12:10:26;8.68;;;1.90;;
61741;SDS011;47650;49.848;9.620;2022-11-22T12:16:08;7.75;;;2.05;;
61741;SDS011;47650;49.848;9.620;2022-11-22T12:26:48;13.20;;;2.75;;
61741;SDS011;47650;49.848;9.620;2022-11-22T12:29:14;9.30;;;2.67;;
61741;SDS011;47650;49.848;9.620;2022-11-22T12:31:51;8.65;;;2.25;;
61741;SDS011;47650;49.848;9.620;2022-11-22T12:34:33;7.45;;;2.25;;
61741;SDS011;47650;49.848;9.620;2022-11-22T12:37:11;6.47;;;2.00;;
61741;SDS011;47650;49.848;9.620;2022-11-22T12:39:40;8.52;;;2.13;;
61741;SDS011;47650;49.848;9.620;2022-11-22T12:42:15;9.77;;;2.58;;
61741;SDS011;47650;49.848;9.620;2022-11-22T12:44:47;7.65;;;2.17;;
61741;SDS011;47650;49.848;9.620;2022-11-22T12:47:23;10.00;;;2.25;;
61741;SDS011;47650;49.848;9.620;2022-11-22T12:49:59;13.88;;;2.90;;
61741;SDS011;47650;49.848;9.620;2022-11-22T12:55:19;8.07;;;2.72;;
61741;SDS011;47650;49.848;9.620;2022-11-22T12:57:56;8.82;;;3.00;;
61741;SDS011;47650;49.848;9.620;2022-11-22T13:00:43;15.85;;;3.05;;
61741;SDS011;47650;49.848;9.620;2022-11-22T13:03:22;12.82;;;3.10;;
61741;SDS011;47650;49.848;9.620;2022-11-22T13:05:56;8.48;;;2.13;;
61741;SDS011;47650;49.848;9.620;2022-11-22T13:10:56;7.60;;;2.33;;
61741;SDS011;47650;49.848;9.620;2022-11-22T13:13:31;6.60;;;2.25;;
61741;SDS011;47650;49.848;9.620;2022-11-22T13:15:59;8.90;;;2.25;;
61741;SDS011;47650;49.848;9.620;2022-11-22T13:18:30;8.90;;;2.67;;
61741;SDS011;47650;49.848;9.620;2022-11-22T13:21:02;11.38;;;2.55;;
61741;SDS011;47650;49.848;9.620;2022-11-22T13:28:44;7.10;;;2.57;;
61741;SDS011;47650;49.848;9.620;2022-11-22T13:33:37;9.75;;;2.58;;
61741;SDS011;47650;49.848;9.620;2022-11-22T13:38:49;6.00;;;2.17;;
61741;SDS011;47650;49.848;9.620;2022-11-22T13:46:52;9.50;;;1.92;;
61741;SDS011;47650;49.848;9.620;2022-11-22T13:49:37;7.75;;;1.95;;
61741;SDS011;47650;49.848;9.620;2022-11-22T14:02:40;9.23;;;2.25;;
61741;SDS011;47650;49.848;9.620;2022-11-22T14:08:00;7.82;;;1.95;;
61741;SDS011;47650;49.848;9.620;2022-11-22T14:26:43;10.18;;;2.50;;
61741;SDS011;47650;49.848;9.620;2022-11-22T14:29:30;9.15;;;2.40;;
61741;SDS011;47650;49.848;9.620;2022-11-22T14:32:12;5.50;;;2.07;;
61741;SDS011;47650;49.848;9.620;2022-11-22T14:50:24;17.30;;;12.57;;
61741;SDS011;47650;49.848;9.620;2022-11-22T14:52:52;9.50;;;2.63;;
61741;SDS011;47650;49.848;9.620;2022-11-22T14:55:25;12.18;;;4.45;;
61741;SDS011;47650;49.848;9.620;2022-11-22T14:58:01;11.55;;;4.43;;
61741;SDS011;47650;49.848;9.620;2022-11-22T15:11:59;9.00;;;4.60;;
61741;SDS011;47650;49.848;9.620;2022-11-22T15:14:42;11.80;;;5.47;;
61741;SDS011;47650;49.848;9.620;2022-11-22T15:17:23;10.75;;;5.93;;
61741;SDS011;47650;49.848;9.620;2022-11-22T15:19:52;13.55;;;8.02;;
61741;SDS011;47650;49.848;9.620;2022-11-22T15:22:20;20.55;;;12.65;;
61741;SDS011;47650;49.848;9.620;2022-11-22T15:24:51;19.40;;;14.25;;
61741;SDS011;47650;49.848;9.620;2022-11-22T15:29:58;14.05;;;9.77;;
61741;SDS011;47650;49.848;9.620;2022-11-22T15:32:32;8.85;;;5.45;;
61741;SDS011;47650;49.848;9.620;2022-11-22T15:35:00;15.02;;;7.75;;
61741;SDS011;47650;49.848;9.620;2022-11-22T15:37:36;11.75;;;5.72;;
61741;SDS011;47650;49.848;9.620;2022-11-22T15:40:17;13.25;;;5.70;;
61741;SDS011;47650;49.848;9.620;2022-11-22T15:42:57;11.40;;;4.68;;
61741;SDS011;47650;49.848;9.620;2022-11-22T15:45:25;10.23;;;4.00;;
61741;SDS011;47650;49.848;9.620;2022-11-22T15:47:55;7.80;;;3.45;;
61741;SDS011;47650;49.848;9.620;2022-11-22T15:50:23;10.18;;;4.63;;
61741;SDS011;47650;49.848;9.620;2022-11-22T15:52:49;15.77;;;5.80;;
61741;SDS011;47650;49.848;9.620;2022-11-22T15:55:17;14.02;;;4.78;;
61741;SDS011;47650;49.848;9.620;2022-11-22T15:57:44;21.42;;;8.15;;
61741;SDS011;47650;49.848;9.620;2022-11-22T16:00:19;18.25;;;7.75;;
61741;SDS011;47650;49.848;9.620;2022-11-22T16:02:49;16.00;;;5.60;;
61741;SDS011;47650;49.848;9.620;2022-11-22T16:05:27;10.65;;;4.07;;
61741;SDS011;47650;49.848;9.620;2022-11-22T16:07:56;12.20;;;3.35;;
61741;SDS011;47650;49.848;9.620;2022-11-22T16:10:26;12.00;;;3.50;;
61741;SDS011;47650;49.848;9.620;2022-11-22T16:13:09;10.32;;;3.22;;
61741;SDS011;47650;49.848;9.620;2022-11-22T16:15:36;10.60;;;2.83;;
61741;SDS011;47650;49.848;9.620;2022-11-22T16:20:34;12.02;;;4.45;;
61741;SDS011;47650;49.848;9.620;2022-11-22T16:23:04;14.40;;;4.57;;
61741;SDS011;47650;49.848;9.620;2022-11-22T16:25:40;15.23;;;5.75;;
61741;SDS011;47650;49.848;9.620;2022-11-22T16:28:19;12.38;;;5.38;;
61741;SDS011;47650;49.848;9.620;2022-11-22T16:30:44;9.50;;;4.15;;
61741;SDS011;47650;49.848;9.620;2022-11-22T16:33:11;11.48;;;3.53;;
61741;SDS011;47650;49.848;9.620;2022-11-22T16:35:38;7.85;;;4.00;;
61741;SDS011;47650;49.848;9.620;2022-11-22T16:38:04;13.05;;;4.65;;
61741;SDS011;47650;49.848;9.620;2022-11-22T16:40:31;9.68;;;3.78;;
61741;SDS011;47650;49.848;9.620;2022-11-22T16:43:01;9.32;;;4.63;;
61741;SDS011;47650;49.848;9.620;2022-11-22T16:45:27;15.98;;;6.63;;
61741;SDS011;47650;49.848;9.620;2022-11-22T16:47:54;13.52;;;6.18;;
61741;SDS011;47650;49.848;9.620;2022-11-22T16:50:29;34.88;;;18.35;;
61741;SDS011;47650;49.848;9.620;2022-11-22T16:52:55;31.98;;;16.08;;
61741;SDS011;47650;49.848;9.620;2022-11-22T16:55:21;29.90;;;13.57;;
61741;SDS011;47650;49.848;9.620;2022-11-22T16:57:47;20.98;;;10.27;;
61741;SDS011;47650;49.848;9.620;2022-11-22T17:00:19;16.77;;;8.48;;
61741;SDS011;47650;49.848;9.620;2022-11-22T17:02:44;19.50;;;11.32;;
61741;SDS011;47650;49.848;9.620;2022-11-22T17:05:13;20.55;;;11.73;;
61741;SDS011;47650;49.848;9.620;2022-11-22T17:07:41;15.75;;;9.88;;
61741;SDS011;47650;49.848;9.620;2022-11-22T17:10:06;17.08;;;10.48;;
61741;SDS011;47650;49.848;9.620;2022-11-22T17:12:32;14.77;;;8.55;;
61741;SDS011;47650;49.848;9.620;2022-11-22T17:14:57;15.52;;;8.00;;
61741;SDS011;47650;49.848;9.620;2022-11-22T17:17:22;17.52;;;10.07;;
61741;SDS011;47650;49.848;9.620;2022-11-22T17:19:49;20.65;;;11.00;;